< < Back
Terminal Aerodrome Forecast


Current Version              Previous Versions:   1  2  3  4  5  6  7  8  9  

Terminal Aerodrome Forecast

541
FTUS44 KOHX 020100 AAA
TAFBNA
TAF AMD
KBNA 020143Z 0202/0224 28014G24KT 6SM BR VCSH BKN015 OVC030
     FM020800 30015G25KT P6SM -SHSN OVC020
     FM021700 34012KT P6SM OVC035=

Latest METAR

770
SAUS70 KWBC 020200 RRE
MTRBNA
METAR KBNA 020153Z 28014G23KT 7SM -RA SCT011 BKN026 OVC048 13/11 A2966
RMK AO2 SLP043 P0003 T01280111


USA.gov is the U.S. government's official web portal to all federal, state and local government web resources and services.